createdAt,value
2022-11-24T00:01:26.558Z,19.48
2022-11-24T00:03:59.841Z,20.42
2022-11-24T00:06:28.651Z,16.88
2022-11-24T00:08:57.025Z,19.45
2022-11-24T00:11:28.174Z,14.45
2022-11-24T00:13:56.423Z,14.02
2022-11-24T00:16:32.023Z,16.15
2022-11-24T00:19:01.076Z,19.27
2022-11-24T00:21:31.498Z,13.85
2022-11-24T00:23:59.428Z,15.95
2022-11-24T00:26:35.540Z,13.18
2022-11-24T00:29:06.460Z,16.98
2022-11-24T00:31:37.039Z,17.52
2022-11-24T00:34:11.039Z,15.02
2022-11-24T00:36:39.222Z,13.73
2022-11-24T00:39:10.406Z,15.00
2022-11-24T00:41:37.872Z,17.20
2022-11-24T00:44:05.604Z,17.52
2022-11-24T00:46:33.028Z,18.95
2022-11-24T00:49:00.766Z,18.33
2022-11-24T00:51:30.531Z,18.08
2022-11-24T00:53:59.569Z,17.23
2022-11-24T00:56:28.963Z,17.45
2022-11-24T00:58:57.484Z,16.90
2022-11-24T01:01:28.150Z,16.85
2022-11-24T01:03:56.228Z,17.67
2022-11-24T01:06:26.487Z,16.25
2022-11-24T01:08:57.318Z,17.00
2022-11-24T01:12:01.054Z,15.85
2022-11-24T01:14:29.272Z,14.93
2022-11-24T01:16:57.249Z,14.02
2022-11-24T01:19:24.972Z,14.02
2022-11-24T01:21:52.662Z,12.90
2022-11-24T01:24:20.351Z,13.48
2022-11-24T01:26:47.673Z,13.40
2022-11-24T01:29:15.148Z,13.88
2022-11-24T01:31:43.095Z,13.48
2022-11-24T01:34:10.542Z,12.43
2022-11-24T01:36:37.723Z,12.85
2022-11-24T01:39:05.247Z,12.57
2022-11-24T01:41:34.395Z,13.10
2022-11-24T01:44:03.984Z,13.10
2022-11-24T01:46:38.973Z,12.82
2022-11-24T01:51:47.854Z,13.05
2022-11-24T01:54:22.691Z,12.97
2022-11-24T01:56:53.803Z,13.35
2022-11-24T01:59:22.404Z,13.98
2022-11-24T02:01:52.983Z,13.05
2022-11-24T02:04:24.630Z,12.48
2022-11-24T02:06:53.226Z,12.73
2022-11-24T02:09:26.708Z,13.50
2022-11-24T02:11:55.408Z,13.20
2022-11-24T02:14:24.688Z,12.68
2022-11-24T02:16:53.363Z,12.95
2022-11-24T02:19:39.508Z,12.43
2022-11-24T02:22:30.022Z,12.18
2022-11-24T02:25:28.150Z,12.65
2022-11-24T02:27:57.044Z,12.73
2022-11-24T02:30:24.768Z,12.38
2022-11-24T02:32:53.004Z,12.80
2022-11-24T02:35:20.726Z,13.30
2022-11-24T02:37:47.921Z,13.00
2022-11-24T02:40:17.134Z,12.82
2022-11-24T02:42:47.383Z,14.23
2022-11-24T02:45:16.474Z,12.75
2022-11-24T02:47:44.374Z,13.25
2022-11-24T02:50:12.432Z,14.23
2022-11-24T02:52:39.758Z,13.38
2022-11-24T02:55:07.560Z,15.20
2022-11-24T02:57:35.243Z,14.57
2022-11-24T03:00:02.532Z,14.00
2022-11-24T03:02:32.431Z,14.35
2022-11-24T03:05:00.087Z,15.10
2022-11-24T03:07:27.341Z,15.02
2022-11-24T03:09:54.569Z,15.90
2022-11-24T03:12:21.919Z,15.70
2022-11-24T03:14:49.357Z,15.57
2022-11-24T03:17:16.889Z,15.32
2022-11-24T03:19:44.453Z,15.85
2022-11-24T03:22:13.352Z,16.38
2022-11-24T03:24:40.769Z,15.00
2022-11-24T03:27:08.280Z,15.88
2022-11-24T03:29:35.582Z,15.50
2022-11-24T03:32:03.194Z,15.38
2022-11-24T03:34:30.840Z,15.70
2022-11-24T03:36:58.728Z,16.52
2022-11-24T03:39:26.023Z,16.13
2022-11-24T03:41:53.245Z,16.30
2022-11-24T03:44:20.504Z,16.42
2022-11-24T03:46:47.944Z,16.98
2022-11-24T03:49:15.618Z,16.48
2022-11-24T03:51:42.919Z,17.02
2022-11-24T03:54:13.568Z,16.63
2022-11-24T03:56:40.885Z,17.40
2022-11-24T03:59:08.968Z,17.42
2022-11-24T04:01:36.457Z,16.58
2022-11-24T04:04:03.845Z,16.45
2022-11-24T04:06:31.387Z,16.80
2022-11-24T04:09:01.041Z,17.15
2022-11-24T04:11:46.724Z,16.55
2022-11-24T04:14:14.468Z,17.77
2022-11-24T04:16:42.029Z,17.38
2022-11-24T04:19:09.480Z,16.33
2022-11-24T04:21:36.999Z,16.85
2022-11-24T04:24:04.259Z,16.60
2022-11-24T04:26:31.696Z,16.67
2022-11-24T04:28:58.925Z,16.58
2022-11-24T04:31:26.114Z,15.88
2022-11-24T04:33:54.522Z,16.67
2022-11-24T04:36:21.880Z,16.10
2022-11-24T04:39:19.200Z,16.27
2022-11-24T04:41:37.154Z,17.02
2022-11-24T04:44:05.787Z,16.33
2022-11-24T04:46:34.753Z,16.67
2022-11-24T04:49:02.203Z,16.08
2022-11-24T04:51:31.267Z,17.20
2022-11-24T04:53:59.282Z,17.38
2022-11-24T04:56:27.690Z,17.73
2022-11-24T04:58:55.727Z,16.88
2022-11-24T05:01:23.810Z,18.40
2022-11-24T05:03:58.817Z,18.20
2022-11-24T05:06:27.238Z,18.00
2022-11-24T05:08:54.419Z,18.65
2022-11-24T05:11:23.061Z,18.35
2022-11-24T05:13:50.326Z,19.38
2022-11-24T05:16:17.524Z,18.48
2022-11-24T05:18:45.055Z,18.83
2022-11-24T05:21:13.586Z,18.33
2022-11-24T05:23:42.143Z,18.38
2022-11-24T05:26:10.712Z,18.80
2022-11-24T05:28:37.818Z,18.13
2022-11-24T05:31:05.632Z,18.98
2022-11-24T05:33:33.665Z,19.10
2022-11-24T05:36:02.867Z,18.55
2022-11-24T05:38:31.432Z,18.83
2022-11-24T05:41:03.023Z,18.33
2022-11-24T05:43:30.624Z,19.25
2022-11-24T05:46:02.622Z,18.83
2022-11-24T05:48:29.953Z,17.88
2022-11-24T05:50:58.790Z,18.75
2022-11-24T05:53:27.190Z,18.58
2022-11-24T05:55:54.633Z,17.58
2022-11-24T05:58:21.808Z,17.55
2022-11-24T06:00:49.056Z,17.98
2022-11-24T06:03:16.633Z,18.52
2022-11-24T06:05:47.301Z,19.30
2022-11-24T06:08:15.298Z,17.27
2022-11-24T06:10:43.281Z,17.55
2022-11-24T06:13:10.594Z,17.40
2022-11-24T06:15:41.087Z,17.40
2022-11-24T06:18:08.284Z,16.50
2022-11-24T06:20:35.984Z,17.40
2022-11-24T06:23:03.230Z,17.05
2022-11-24T06:25:30.444Z,16.73
2022-11-24T06:27:58.902Z,16.92
2022-11-24T06:30:25.923Z,17.25
2022-11-24T06:32:57.203Z,16.50
2022-11-24T06:35:24.422Z,15.73
2022-11-24T06:37:51.755Z,16.38
2022-11-24T06:40:19.076Z,15.52
2022-11-24T06:42:51.583Z,16.90
2022-11-24T06:45:19.554Z,15.93
2022-11-24T06:47:46.839Z,17.10
2022-11-24T06:50:14.041Z,16.27
2022-11-24T06:52:41.188Z,16.70
2022-11-24T06:55:09.794Z,17.55
2022-11-24T06:57:37.177Z,17.30
2022-11-24T07:00:06.480Z,17.00
2022-11-24T07:02:34.444Z,17.80
2022-11-24T07:05:01.995Z,17.40
2022-11-24T07:07:31.503Z,16.17
2022-11-24T07:09:58.756Z,15.52
2022-11-24T07:12:25.975Z,16.73
2022-11-24T07:14:55.888Z,16.23
2022-11-24T07:17:23.407Z,16.63
2022-11-24T07:19:50.465Z,16.88
2022-11-24T07:22:17.917Z,16.88
2022-11-24T07:24:44.969Z,16.58
2022-11-24T07:27:12.605Z,15.15
2022-11-24T07:29:39.937Z,16.40
2022-11-24T07:32:07.198Z,15.50
2022-11-24T07:34:35.190Z,15.32
2022-11-24T07:37:02.767Z,16.60
2022-11-24T07:39:29.989Z,15.95
2022-11-24T07:41:59.471Z,15.55
2022-11-24T07:44:27.139Z,15.45
2022-11-24T07:46:54.228Z,15.60
2022-11-24T07:49:21.305Z,15.25
2022-11-24T07:51:48.714Z,15.50
2022-11-24T07:54:15.873Z,14.68
2022-11-24T07:56:43.133Z,14.98
2022-11-24T07:59:10.419Z,15.77
2022-11-24T08:01:37.627Z,15.98
2022-11-24T08:04:05.124Z,16.58
2022-11-24T08:06:40.691Z,16.98
2022-11-24T08:09:10.422Z,15.57
2022-11-24T08:11:40.035Z,16.05
2022-11-24T08:14:07.213Z,16.08
2022-11-24T08:16:34.452Z,15.52
2022-11-24T08:19:01.928Z,15.60
2022-11-24T08:21:29.332Z,16.58
2022-11-24T08:23:57.948Z,16.40
2022-11-24T08:26:26.238Z,15.73
2022-11-24T08:28:56.617Z,16.02
2022-11-24T08:31:26.267Z,16.10
2022-11-24T08:33:56.865Z,15.85
2022-11-24T08:36:24.387Z,15.23
2022-11-24T08:38:59.861Z,14.73
2022-11-24T08:41:28.467Z,16.40
2022-11-24T08:43:55.975Z,16.88
2022-11-24T08:46:24.035Z,15.35
2022-11-24T08:48:53.391Z,14.65
2022-11-24T08:51:26.526Z,15.82
2022-11-24T08:54:01.691Z,14.25
2022-11-24T08:56:31.339Z,14.45
2022-11-24T08:58:59.014Z,14.60
2022-11-24T09:01:27.491Z,14.88
2022-11-24T09:03:55.282Z,15.13
2022-11-24T09:06:25.278Z,14.98
2022-11-24T09:08:55.940Z,15.23
2022-11-24T09:11:25.340Z,14.48
2022-11-24T09:13:54.537Z,15.70
2022-11-24T09:16:27.898Z,14.85
2022-11-24T09:19:08.388Z,14.57
2022-11-24T09:21:38.867Z,14.93
2022-11-24T09:24:08.679Z,14.90
2022-11-24T09:26:38.982Z,13.50
2022-11-24T09:29:08.742Z,12.90
2022-11-24T09:31:37.764Z,13.75
2022-11-24T09:34:07.352Z,14.02
2022-11-24T09:36:35.022Z,13.93
2022-11-24T09:39:02.316Z,14.25
2022-11-24T09:41:38.851Z,13.63
2022-11-24T09:44:32.911Z,13.85
2022-11-24T09:47:23.530Z,13.30
2022-11-24T09:50:00.880Z,13.50
2022-11-24T09:52:48.962Z,13.18
2022-11-24T09:55:59.806Z,13.70
2022-11-24T09:58:43.465Z,13.23
2022-11-24T10:01:26.473Z,13.90
2022-11-24T10:03:54.825Z,13.40
2022-11-24T10:06:24.979Z,13.02
2022-11-24T10:09:07.698Z,12.88
2022-11-24T10:12:09.724Z,11.68
2022-11-24T10:15:01.768Z,13.90
2022-11-24T10:17:50.480Z,12.27
2022-11-24T10:20:17.631Z,12.43
2022-11-24T10:22:54.459Z,13.32
2022-11-24T10:25:27.133Z,12.75
2022-11-24T10:28:15.557Z,12.98
2022-11-24T10:30:43.131Z,12.25
2022-11-24T10:33:18.793Z,12.55
2022-11-24T10:35:55.756Z,11.98
2022-11-24T10:38:39.438Z,11.90
2022-11-24T10:41:14.944Z,12.75
2022-11-24T10:43:45.341Z,12.70
2022-11-24T10:46:19.285Z,11.63
2022-11-24T10:49:05.692Z,12.30
2022-11-24T10:52:05.909Z,13.13
2022-11-24T10:54:37.052Z,11.85
2022-11-24T10:57:04.544Z,12.20
2022-11-24T10:59:38.993Z,12.32
2022-11-24T11:02:36.630Z,11.85
2022-11-24T11:05:26.610Z,12.95
2022-11-24T11:08:26.321Z,13.25
2022-11-24T11:11:27.689Z,12.52
2022-11-24T11:14:04.777Z,12.77
2022-11-24T11:16:51.020Z,12.70
2022-11-24T11:19:53.153Z,12.60
2022-11-24T11:22:32.691Z,13.25
2022-11-24T11:25:05.903Z,11.05
2022-11-24T11:27:33.624Z,11.73
2022-11-24T11:36:17.479Z,13.55
2022-11-24T11:38:47.361Z,13.98
2022-11-24T11:41:20.814Z,14.32
2022-11-24T11:43:54.917Z,13.80
2022-11-24T11:46:23.524Z,13.82
2022-11-24T11:48:52.225Z,13.77
2022-11-24T11:51:47.980Z,14.20
2022-11-24T11:54:55.798Z,12.93
2022-11-24T11:57:31.984Z,13.23
2022-11-24T12:00:15.813Z,13.25
2022-11-24T12:03:20.573Z,13.23
2022-11-24T12:05:56.901Z,12.80
2022-11-24T12:08:49.443Z,13.05
2022-11-24T12:11:43.658Z,13.77
2022-11-24T12:14:52.949Z,14.68
2022-11-24T12:17:32.730Z,15.00
2022-11-24T12:20:24.464Z,14.35
2022-11-24T12:23:11.559Z,14.07
2022-11-24T12:25:57.201Z,14.10
2022-11-24T12:28:51.647Z,13.32
2022-11-24T12:31:42.551Z,13.50
2022-11-24T12:34:29.573Z,13.35
2022-11-24T12:37:38.526Z,14.48
2022-11-24T12:40:16.501Z,14.48
2022-11-24T12:43:02.823Z,15.07
2022-11-24T12:45:45.204Z,14.57
2022-11-24T12:48:29.042Z,14.13
2022-11-24T12:50:58.821Z,14.20
2022-11-24T12:53:31.195Z,14.05
2022-11-24T12:56:12.453Z,14.00
2022-11-24T12:58:51.832Z,14.52
2022-11-24T13:01:29.739Z,14.18
2022-11-24T13:04:00.119Z,13.90
2022-11-24T13:06:59.272Z,14.35
2022-11-24T13:09:26.633Z,14.45
2022-11-24T13:12:06.275Z,14.38
2022-11-24T13:14:38.101Z,14.48
2022-11-24T13:17:36.368Z,13.32
2022-11-24T13:20:26.518Z,12.60
2022-11-24T13:23:00.239Z,14.20
2022-11-24T13:25:35.568Z,14.48
2022-11-24T13:28:06.920Z,13.75
2022-11-24T13:30:37.172Z,14.20
2022-11-24T13:33:16.759Z,13.73
2022-11-24T13:36:23.190Z,14.32
2022-11-24T13:38:54.706Z,12.98
2022-11-24T13:41:34.535Z,14.35
2022-11-24T13:44:14.016Z,14.98
2022-11-24T13:47:06.679Z,14.35
2022-11-24T13:49:43.189Z,15.65
2022-11-24T13:52:38.285Z,14.60
2022-11-24T13:55:11.994Z,14.88
2022-11-24T13:57:45.432Z,15.15
2022-11-24T14:00:20.596Z,13.02
2022-11-24T14:02:49.477Z,15.98
2022-11-24T14:05:19.258Z,16.05
2022-11-24T14:07:50.041Z,14.50
2022-11-24T14:10:20.564Z,14.98
2022-11-24T14:12:48.199Z,15.45
2022-11-24T14:15:30.178Z,16.08
2022-11-24T14:17:57.337Z,15.18
2022-11-24T14:20:27.389Z,14.80
2022-11-24T14:22:54.712Z,15.82
2022-11-24T14:25:35.380Z,15.20
2022-11-24T14:28:03.015Z,15.05
2022-11-24T14:30:31.067Z,15.15
2022-11-24T14:33:00.420Z,15.05
2022-11-24T14:35:32.482Z,15.43
2022-11-24T14:38:02.418Z,14.90
2022-11-24T14:40:59.593Z,15.75
2022-11-24T14:43:32.081Z,15.73
2022-11-24T14:46:02.033Z,15.27
2022-11-24T14:48:32.850Z,14.85
2022-11-24T14:51:22.699Z,14.88
2022-11-24T14:53:54.160Z,15.25
2022-11-24T14:56:25.893Z,14.10
2022-11-24T14:58:54.357Z,15.10
2022-11-24T15:01:27.478Z,16.08
2022-11-24T15:04:32.487Z,13.65
2022-11-24T15:07:11.706Z,15.02
2022-11-24T15:09:50.503Z,15.68
2022-11-24T15:12:29.018Z,16.05
2022-11-24T15:15:01.628Z,14.85
2022-11-24T15:17:30.565Z,16.60
2022-11-24T15:20:20.690Z,16.08
2022-11-24T15:22:48.020Z,15.95
2022-11-24T15:25:42.114Z,16.50
2022-11-24T15:28:09.566Z,16.27
2022-11-24T15:30:37.818Z,15.63
2022-11-24T15:33:14.779Z,15.75
2022-11-24T15:35:42.357Z,15.73
2022-11-24T15:38:10.016Z,15.45
2022-11-24T15:40:42.232Z,16.00
2022-11-24T15:43:23.663Z,16.98
2022-11-24T15:45:51.347Z,16.52
2022-11-24T15:48:18.614Z,14.45
2022-11-24T15:50:48.066Z,15.43
2022-11-24T15:53:36.356Z,13.80
2022-11-24T15:56:06.185Z,16.42
2022-11-24T15:58:33.388Z,15.55
2022-11-24T16:01:00.775Z,16.23
2022-11-24T16:06:25.351Z,16.30
2022-11-24T16:08:54.070Z,15.93
2022-11-24T16:11:21.764Z,16.60
2022-11-24T16:13:52.960Z,15.52
2022-11-24T16:16:23.119Z,17.17
2022-11-24T16:18:50.962Z,15.85
2022-11-24T16:21:18.238Z,15.73
2022-11-24T16:23:46.361Z,16.00
2022-11-24T16:26:15.495Z,15.07
2022-11-24T16:28:45.346Z,16.98
2022-11-24T16:31:16.115Z,16.30
2022-11-24T16:33:45.825Z,17.38
2022-11-24T16:36:14.344Z,16.90
2022-11-24T16:38:41.578Z,15.18
2022-11-24T16:41:10.564Z,17.05
2022-11-24T16:43:38.206Z,15.73
2022-11-24T16:46:17.704Z,17.95
2022-11-24T16:48:53.141Z,15.27
2022-11-24T16:51:22.580Z,17.63
2022-11-24T16:53:58.006Z,16.60
2022-11-24T16:56:26.225Z,16.83
2022-11-24T16:58:53.965Z,17.52
2022-11-24T17:01:21.544Z,15.63
2022-11-24T17:03:48.933Z,17.33
2022-11-24T17:06:17.113Z,17.35
2022-11-24T17:08:46.430Z,17.33
2022-11-24T17:11:15.977Z,18.25
2022-11-24T17:13:44.155Z,17.10
2022-11-24T17:16:14.670Z,17.88
2022-11-24T17:18:42.686Z,15.05
2022-11-24T17:21:16.414Z,16.85
2022-11-24T17:23:44.336Z,18.15
2022-11-24T17:26:16.238Z,16.35
2022-11-24T17:28:44.321Z,16.38
2022-11-24T17:31:23.172Z,17.35
2022-11-24T17:33:51.756Z,15.98
2022-11-24T17:36:19.748Z,16.13
2022-11-24T17:38:49.527Z,16.10
2022-11-24T17:41:18.704Z,15.95
2022-11-24T17:43:50.392Z,15.90
2022-11-24T17:46:17.847Z,15.57
2022-11-24T17:48:46.682Z,16.73
2022-11-24T17:51:16.467Z,17.02
2022-11-24T17:53:46.929Z,15.90
2022-11-24T17:56:17.039Z,15.43
2022-11-24T17:58:44.569Z,15.02
2022-11-24T18:01:13.533Z,14.13
2022-11-24T18:03:41.913Z,15.75
2022-11-24T18:06:14.696Z,15.18
2022-11-24T18:08:47.210Z,14.98
2022-11-24T18:11:27.291Z,15.10
2022-11-24T18:14:01.215Z,14.93
2022-11-24T18:16:31.251Z,14.52
2022-11-24T18:19:08.869Z,15.25
2022-11-24T18:21:41.128Z,14.88
2022-11-24T18:24:09.803Z,13.27
2022-11-24T18:26:37.354Z,14.30
2022-11-24T18:29:04.957Z,15.25
2022-11-24T18:31:34.430Z,15.13
2022-11-24T18:34:02.715Z,15.50
2022-11-24T18:36:30.934Z,14.65
2022-11-24T18:39:10.831Z,15.25
2022-11-24T18:41:39.832Z,14.88
2022-11-24T18:44:08.706Z,15.88
2022-11-24T18:46:36.580Z,15.50
2022-11-24T18:49:04.246Z,15.68
2022-11-24T18:51:31.772Z,15.05
2022-11-24T18:53:59.220Z,15.00
2022-11-24T18:56:28.435Z,14.95
2022-11-24T18:58:56.755Z,14.18
2022-11-24T19:01:27.147Z,14.02
2022-11-24T19:04:15.546Z,14.30
2022-11-24T19:06:42.987Z,15.15
2022-11-24T19:09:16.460Z,14.05
2022-11-24T19:11:45.576Z,14.48
2022-11-24T19:14:15.852Z,14.20
2022-11-24T19:16:43.461Z,15.00
2022-11-24T19:19:12.560Z,14.60
2022-11-24T19:21:40.956Z,14.15
2022-11-24T19:24:13.325Z,14.75
2022-11-24T19:26:41.243Z,15.13
2022-11-24T19:29:08.984Z,14.73
2022-11-24T19:31:38.461Z,15.45
2022-11-24T19:34:08.447Z,14.02
2022-11-24T19:36:36.614Z,14.35
2022-11-24T19:39:05.740Z,13.70
2022-11-24T19:41:33.932Z,14.38
2022-11-24T19:44:01.653Z,13.98
2022-11-24T19:46:30.337Z,14.70
2022-11-24T19:49:00.988Z,14.35
2022-11-24T19:51:32.260Z,14.73
2022-11-24T19:54:00.838Z,14.52
2022-11-24T19:56:30.234Z,14.35
2022-11-24T19:58:58.283Z,14.48
2022-11-24T20:01:40.260Z,14.50
2022-11-24T20:04:10.904Z,14.80
2022-11-24T20:06:40.804Z,15.15
2022-11-24T20:09:10.436Z,14.75
2022-11-24T20:11:38.568Z,14.60
2022-11-24T20:14:07.313Z,14.77
2022-11-24T20:16:35.384Z,15.02
2022-11-24T20:19:08.126Z,14.68
2022-11-24T20:21:38.857Z,15.80
2022-11-24T20:24:19.098Z,14.90
2022-11-24T20:26:49.775Z,15.00
2022-11-24T20:29:20.172Z,15.20
2022-11-24T20:31:50.607Z,15.18
2022-11-24T20:34:18.361Z,15.55
2022-11-24T20:36:51.168Z,14.93
2022-11-24T20:39:29.027Z,15.00
2022-11-24T20:41:56.983Z,15.52
2022-11-24T20:44:26.894Z,14.95
2022-11-24T20:46:56.034Z,13.90
2022-11-24T20:49:23.339Z,14.13
2022-11-24T20:51:54.621Z,14.07
2022-11-24T20:54:22.279Z,14.35
2022-11-24T20:56:49.510Z,13.90
2022-11-24T20:59:21.557Z,14.00
2022-11-24T21:01:50.230Z,13.38
2022-11-24T21:04:20.490Z,14.43
2022-11-24T21:06:47.972Z,12.82
2022-11-24T21:09:15.731Z,13.27
2022-11-24T21:11:43.395Z,13.48
2022-11-24T21:14:11.370Z,12.73
2022-11-24T21:16:40.933Z,12.32
2022-11-24T21:19:11.934Z,12.60
2022-11-24T21:21:41.198Z,12.15
2022-11-24T21:24:17.085Z,12.35
2022-11-24T21:26:48.202Z,12.43
2022-11-24T21:29:19.124Z,12.35
2022-11-24T21:31:46.704Z,12.18
2022-11-24T21:34:15.937Z,12.27
2022-11-24T21:36:45.238Z,12.20
2022-11-24T21:39:15.918Z,11.77
2022-11-24T21:41:43.989Z,11.02
2022-11-24T21:44:13.173Z,11.85
2022-11-24T21:46:46.099Z,11.63
2022-11-24T21:49:17.051Z,11.50
2022-11-24T21:51:44.163Z,11.93
2022-11-24T21:54:11.314Z,11.32
2022-11-24T21:56:38.629Z,11.40
2022-11-24T21:59:05.800Z,11.60
2022-11-24T22:01:32.837Z,11.27
2022-11-24T22:04:00.249Z,11.57
2022-11-24T22:06:27.516Z,11.25
2022-11-24T22:08:55.295Z,10.63
2022-11-24T22:11:25.346Z,10.50
2022-11-24T22:13:53.811Z,11.10
2022-11-24T22:16:22.967Z,10.27
2022-11-24T22:18:50.897Z,10.13
2022-11-24T22:21:30.712Z,10.43
2022-11-24T22:23:58.102Z,10.45
2022-11-24T22:26:26.866Z,9.98
2022-11-24T22:28:56.119Z,9.23
2022-11-24T22:31:25.873Z,9.93
2022-11-24T22:33:54.369Z,9.88
2022-11-24T22:36:22.703Z,10.18
2022-11-24T22:38:54.866Z,9.93
2022-11-24T22:41:22.511Z,9.65
2022-11-24T22:43:50.090Z,9.50
2022-11-24T22:46:24.944Z,9.68
2022-11-24T22:48:53.557Z,9.55
2022-11-24T22:51:33.186Z,9.25
2022-11-24T22:54:04.185Z,8.88
2022-11-24T22:56:32.665Z,9.65
2022-11-24T22:59:00.858Z,9.57
2022-11-24T23:01:29.232Z,8.77
2022-11-24T23:03:56.992Z,9.20
2022-11-24T23:06:26.654Z,9.35
2022-11-24T23:08:58.256Z,9.52
2022-11-24T23:11:37.478Z,8.57
2022-11-24T23:17:01.035Z,7.82
2022-11-24T23:19:29.436Z,7.95
2022-11-24T23:21:56.686Z,8.35
2022-11-24T23:24:23.708Z,8.30
2022-11-24T23:26:50.955Z,7.38
2022-11-24T23:29:18.220Z,7.40
2022-11-24T23:31:45.316Z,7.53
2022-11-24T23:34:12.468Z,6.53
2022-11-24T23:36:39.747Z,7.00
2022-11-24T23:39:11.000Z,7.90
2022-11-24T23:41:38.471Z,7.10
2022-11-24T23:44:06.147Z,7.43
2022-11-24T23:46:33.746Z,7.03
2022-11-24T23:49:00.997Z,7.30
2022-11-24T23:51:33.068Z,7.45
2022-11-24T23:54:01.887Z,6.47
2022-11-24T23:56:32.953Z,6.63
2022-11-24T23:59:02.994Z,7.28
